sensor_id;sensor_type;location;lat;lon;timestamp;pressure;altitude;pressure_sealevel;temperature;humidity
13719;BME280;6931;51.100;17.068;2022-07-10T00:00:03;100238.44;;;16.83;75.06
13719;BME280;6931;51.100;17.068;2022-07-10T00:02:30;100229.25;;;16.83;75.45
13719;BME280;6931;51.100;17.068;2022-07-10T00:04:57;100229.25;;;16.83;75.89
13719;BME280;6931;51.100;17.068;2022-07-10T00:07:24;100236.00;;;16.85;75.68
13719;BME280;6931;51.100;17.068;2022-07-10T00:09:50;100230.00;;;16.83;75.92
13719;BME280;6931;51.100;17.068;2022-07-10T00:12:17;100237.69;;;16.83;76.33
13719;BME280;6931;51.100;17.068;2022-07-10T00:14:44;100227.81;;;16.75;76.44
13719;BME280;6931;51.100;17.068;2022-07-10T00:17:11;100235.13;;;16.72;76.97
13719;BME280;6931;51.100;17.068;2022-07-10T00:19:37;100222.19;;;16.59;77.41
13719;BME280;6931;51.100;17.068;2022-07-10T00:22:04;100236.88;;;16.82;77.04
13719;BME280;6931;51.100;17.068;2022-07-10T00:24:31;100224.06;;;16.65;77.49
13719;BME280;6931;51.100;17.068;2022-07-10T00:26:58;100222.09;;;16.62;77.53
13719;BME280;6931;51.100;17.068;2022-07-10T00:29:25;100221.41;;;16.74;77.23
13719;BME280;6931;51.100;17.068;2022-07-10T00:31:52;100233.44;;;16.75;77.85
13719;BME280;6931;51.100;17.068;2022-07-10T00:34:19;100224.75;;;16.53;78.64
13719;BME280;6931;51.100;17.068;2022-07-10T00:36:45;100209.16;;;16.49;78.35
13719;BME280;6931;51.100;17.068;2022-07-10T00:39:12;100225.19;;;16.52;78.54
13719;BME280;6931;51.100;17.068;2022-07-10T00:41:39;100220.31;;;16.36;79.72
13719;BME280;6931;51.100;17.068;2022-07-10T00:44:06;100223.94;;;16.53;78.60
13719;BME280;6931;51.100;17.068;2022-07-10T00:46:33;100221.78;;;16.41;79.53
13719;BME280;6931;51.100;17.068;2022-07-10T00:49:00;100218.19;;;16.40;79.36
13719;BME280;6931;51.100;17.068;2022-07-10T00:51:29;100235.28;;;16.49;79.58
13719;BME280;6931;51.100;17.068;2022-07-10T00:53:57;100230.31;;;16.37;80.08
13719;BME280;6931;51.100;17.068;2022-07-10T00:56:25;100211.78;;;16.40;79.90
13719;BME280;6931;51.100;17.068;2022-07-10T00:58:53;100216.72;;;16.16;81.10
13719;BME280;6931;51.100;17.068;2022-07-10T01:01:21;100216.69;;;16.36;80.71
13719;BME280;6931;51.100;17.068;2022-07-10T01:03:49;100220.72;;;16.35;80.72
13719;BME280;6931;51.100;17.068;2022-07-10T01:06:16;100218.34;;;16.33;80.29
13719;BME280;6931;51.100;17.068;2022-07-10T01:08:44;100212.03;;;16.29;80.89
13719;BME280;6931;51.100;17.068;2022-07-10T01:11:11;100210.22;;;16.03;82.27
13719;BME280;6931;51.100;17.068;2022-07-10T01:13:39;100195.25;;;16.26;81.06
13719;BME280;6931;51.100;17.068;2022-07-10T01:16:06;100207.00;;;16.21;81.33
13719;BME280;6931;51.100;17.068;2022-07-10T01:18:33;100206.41;;;16.29;81.09
13719;BME280;6931;51.100;17.068;2022-07-10T01:21:00;100208.25;;;16.36;81.27
13719;BME280;6931;51.100;17.068;2022-07-10T01:23:26;100212.03;;;16.29;80.90
13719;BME280;6931;51.100;17.068;2022-07-10T01:25:53;100218.50;;;16.26;81.62
13719;BME280;6931;51.100;17.068;2022-07-10T01:28:21;100208.59;;;16.02;82.36
13719;BME280;6931;51.100;17.068;2022-07-10T01:30:49;100224.88;;;16.11;82.47
13719;BME280;6931;51.100;17.068;2022-07-10T01:33:16;100227.72;;;15.91;83.83
13719;BME280;6931;51.100;17.068;2022-07-10T01:35:43;100225.06;;;15.84;83.95
13719;BME280;6931;51.100;17.068;2022-07-10T01:38:10;100219.09;;;15.82;84.56
13719;BME280;6931;51.100;17.068;2022-07-10T01:40:36;100217.22;;;15.75;84.10
13719;BME280;6931;51.100;17.068;2022-07-10T01:43:03;100221.22;;;15.94;83.91
13719;BME280;6931;51.100;17.068;2022-07-10T01:45:30;100215.47;;;15.81;84.37
13719;BME280;6931;51.100;17.068;2022-07-10T01:47:56;100218.66;;;15.83;84.29
13719;BME280;6931;51.100;17.068;2022-07-10T01:50:23;100212.03;;;15.74;84.97
13719;BME280;6931;51.100;17.068;2022-07-10T01:52:50;100214.56;;;15.68;84.90
13719;BME280;6931;51.100;17.068;2022-07-10T01:55:17;100224.47;;;15.92;84.45
13719;BME280;6931;51.100;17.068;2022-07-10T01:57:44;100195.81;;;15.62;84.70
13719;BME280;6931;51.100;17.068;2022-07-10T02:00:11;100225.13;;;15.61;85.22
13719;BME280;6931;51.100;17.068;2022-07-10T02:02:38;100214.69;;;15.42;86.12
13719;BME280;6931;51.100;17.068;2022-07-10T02:05:05;100224.97;;;15.48;86.41
13719;BME280;6931;51.100;17.068;2022-07-10T02:07:32;100207.84;;;15.43;86.14
13719;BME280;6931;51.100;17.068;2022-07-10T02:09:59;100228.81;;;15.58;85.35
13719;BME280;6931;51.100;17.068;2022-07-10T02:12:26;100215.97;;;15.57;85.32
13719;BME280;6931;51.100;17.068;2022-07-10T02:14:52;100223.25;;;15.54;85.54
13719;BME280;6931;51.100;17.068;2022-07-10T02:17:19;100224.13;;;15.51;86.02
13719;BME280;6931;51.100;17.068;2022-07-10T02:19:46;100228.44;;;15.56;85.14
13719;BME280;6931;51.100;17.068;2022-07-10T02:22:13;100219.66;;;15.54;85.19
13719;BME280;6931;51.100;17.068;2022-07-10T02:24:40;100227.88;;;15.64;84.83
13719;BME280;6931;51.100;17.068;2022-07-10T02:27:06;100210.78;;;15.55;83.75
13719;BME280;6931;51.100;17.068;2022-07-10T02:29:33;100230.81;;;15.57;84.02
13719;BME280;6931;51.100;17.068;2022-07-10T02:32:00;100227.00;;;15.48;83.97
13719;BME280;6931;51.100;17.068;2022-07-10T02:34:27;100214.13;;;15.27;84.40
13719;BME280;6931;51.100;17.068;2022-07-10T02:36:54;100217.72;;;15.51;83.83
13719;BME280;6931;51.100;17.068;2022-07-10T02:39:21;100212.47;;;15.53;83.58
13719;BME280;6931;51.100;17.068;2022-07-10T02:41:49;100227.00;;;15.48;82.94
13719;BME280;6931;51.100;17.068;2022-07-10T02:44:16;100220.22;;;15.45;82.77
13719;BME280;6931;51.100;17.068;2022-07-10T02:46:43;100210.47;;;15.30;83.18
13719;BME280;6931;51.100;17.068;2022-07-10T02:49:10;100216.56;;;15.48;82.26
13719;BME280;6931;51.100;17.068;2022-07-10T02:51:37;100161.34;;;15.19;82.27
13719;BME280;6931;51.100;17.068;2022-07-10T02:54:03;100236.44;;;15.57;82.16
13719;BME280;6931;51.100;17.068;2022-07-10T02:56:30;100222.19;;;15.25;82.13
13719;BME280;6931;51.100;17.068;2022-07-10T02:58:57;100236.13;;;15.52;81.87
13719;BME280;6931;51.100;17.068;2022-07-10T03:01:24;100232.44;;;15.35;82.16
13719;BME280;6931;51.100;17.068;2022-07-10T03:03:51;100225.09;;;15.41;81.21
13719;BME280;6931;51.100;17.068;2022-07-10T03:06:17;100219.66;;;15.31;81.95
13719;BME280;6931;51.100;17.068;2022-07-10T03:08:44;100222.25;;;15.22;82.01
13719;BME280;6931;51.100;17.068;2022-07-10T03:11:11;100221.94;;;15.39;81.25
13719;BME280;6931;51.100;17.068;2022-07-10T03:13:38;100232.97;;;15.50;80.82
13719;BME280;6931;51.100;17.068;2022-07-10T03:16:05;100224.75;;;15.39;80.74
13719;BME280;6931;51.100;17.068;2022-07-10T03:18:32;100230.41;;;15.36;81.30
13719;BME280;6931;51.100;17.068;2022-07-10T03:20:59;100221.59;;;15.14;80.75
13719;BME280;6931;51.100;17.068;2022-07-10T03:23:25;100230.06;;;15.34;80.05
13719;BME280;6931;51.100;17.068;2022-07-10T03:25:52;100226.75;;;15.39;80.03
13719;BME280;6931;51.100;17.068;2022-07-10T03:28:19;100226.13;;;15.28;80.80
13719;BME280;6931;51.100;17.068;2022-07-10T03:30:46;100225.69;;;15.10;80.66
13719;BME280;6931;51.100;17.068;2022-07-10T03:33:12;100219.59;;;15.15;80.77
13719;BME280;6931;51.100;17.068;2022-07-10T03:35:39;100219.22;;;15.13;80.43
13719;BME280;6931;51.100;17.068;2022-07-10T03:38:06;100228.00;;;15.15;80.51
13719;BME280;6931;51.100;17.068;2022-07-10T03:40:33;100217.47;;;14.99;80.26
13719;BME280;6931;51.100;17.068;2022-07-10T03:43:00;100215.44;;;15.00;79.81
13719;BME280;6931;51.100;17.068;2022-07-10T03:45:26;100218.34;;;15.16;78.72
13719;BME280;6931;51.100;17.068;2022-07-10T03:47:53;100222.63;;;15.24;79.09
13719;BME280;6931;51.100;17.068;2022-07-10T03:50:20;100216.16;;;15.04;79.35
13719;BME280;6931;51.100;17.068;2022-07-10T03:52:47;100226.13;;;15.28;78.48
13719;BME280;6931;51.100;17.068;2022-07-10T03:55:13;100225.63;;;15.13;78.32
13719;BME280;6931;51.100;17.068;2022-07-10T03:57:40;100213.97;;;15.15;77.66
13719;BME280;6931;51.100;17.068;2022-07-10T04:00:29;100223.63;;;15.33;78.08
13719;BME280;6931;51.100;17.068;2022-07-10T04:03:01;100220.97;;;15.26;77.40
13719;BME280;6931;51.100;17.068;2022-07-10T04:05:29;100222.25;;;15.22;77.42
13719;BME280;6931;51.100;17.068;2022-07-10T04:07:56;100235.72;;;15.30;77.30
13719;BME280;6931;51.100;17.068;2022-07-10T04:10:24;100223.63;;;15.33;77.44
13719;BME280;6931;51.100;17.068;2022-07-10T04:12:52;100225.19;;;15.15;77.42
13719;BME280;6931;51.100;17.068;2022-07-10T04:15:19;100220.00;;;15.13;77.78
13719;BME280;6931;51.100;17.068;2022-07-10T04:17:47;100223.97;;;15.16;77.85
13719;BME280;6931;51.100;17.068;2022-07-10T04:20:15;100229.94;;;15.18;78.27
13719;BME280;6931;51.100;17.068;2022-07-10T04:22:42;100232.56;;;15.28;77.52
13719;BME280;6931;51.100;17.068;2022-07-10T04:25:10;100211.16;;;15.15;77.69
13719;BME280;6931;51.100;17.068;2022-07-10T04:27:37;100232.19;;;15.49;77.11
13719;BME280;6931;51.100;17.068;2022-07-10T04:30:05;100224.97;;;15.48;77.18
13719;BME280;6931;51.100;17.068;2022-07-10T04:32:32;100203.44;;;15.19;77.06
13719;BME280;6931;51.100;17.068;2022-07-10T04:34:59;100224.19;;;15.25;77.00
13719;BME280;6931;51.100;17.068;2022-07-10T04:37:27;100222.31;;;15.18;77.92
13719;BME280;6931;51.100;17.068;2022-07-10T04:39:55;100226.63;;;15.23;77.63
13719;BME280;6931;51.100;17.068;2022-07-10T04:42:24;100219.53;;;15.38;76.17
13719;BME280;6931;51.100;17.068;2022-07-10T04:44:53;100227.00;;;15.48;76.41
13719;BME280;6931;51.100;17.068;2022-07-10T04:47:19;100221.53;;;15.41;76.33
13719;BME280;6931;51.100;17.068;2022-07-10T04:49:46;100214.03;;;15.31;76.40
13719;BME280;6931;51.100;17.068;2022-07-10T04:52:13;100222.31;;;15.18;77.12
13719;BME280;6931;51.100;17.068;2022-07-10T04:54:40;100228.66;;;15.22;77.01
13719;BME280;6931;51.100;17.068;2022-07-10T04:57:06;100230.69;;;15.22;77.53
13719;BME280;6931;51.100;17.068;2022-07-10T04:59:33;100229.94;;;15.18;77.38
13719;BME280;6931;51.100;17.068;2022-07-10T05:01:59;100224.56;;;15.27;76.70
13719;BME280;6931;51.100;17.068;2022-07-10T05:04:26;100235.84;;;15.46;76.67
13719;BME280;6931;51.100;17.068;2022-07-10T05:06:53;100231.13;;;15.20;76.27
13719;BME280;6931;51.100;17.068;2022-07-10T05:09:20;100227.63;;;15.13;76.15
13719;BME280;6931;51.100;17.068;2022-07-10T05:11:47;100214.47;;;15.29;76.68
13719;BME280;6931;51.100;17.068;2022-07-10T05:14:14;100218.72;;;15.41;76.44
13719;BME280;6931;51.100;17.068;2022-07-10T05:16:40;100211.75;;;15.26;75.54
13719;BME280;6931;51.100;17.068;2022-07-10T05:19:07;100218.53;;;15.05;75.11
13719;BME280;6931;51.100;17.068;2022-07-10T05:21:34;100226.34;;;15.40;75.64
13719;BME280;6931;51.100;17.068;2022-07-10T05:24:01;100202.97;;;15.24;75.52
13719;BME280;6931;51.100;17.068;2022-07-10T05:26:27;100218.75;;;15.37;75.71
13719;BME280;6931;51.100;17.068;2022-07-10T05:28:54;100225.91;;;15.42;74.51
13719;BME280;6931;51.100;17.068;2022-07-10T05:31:21;100226.38;;;15.60;75.12
13719;BME280;6931;51.100;17.068;2022-07-10T05:33:48;100221.25;;;15.55;74.26
13719;BME280;6931;51.100;17.068;2022-07-10T05:36:15;100233.81;;;15.47;73.51
13719;BME280;6931;51.100;17.068;2022-07-10T05:38:42;100216.28;;;15.43;72.90
13719;BME280;6931;51.100;17.068;2022-07-10T05:41:10;100233.75;;;15.27;71.97
13719;BME280;6931;51.100;17.068;2022-07-10T05:43:36;100233.69;;;15.54;72.67
13719;BME280;6931;51.100;17.068;2022-07-10T05:46:03;100241.31;;;15.53;71.90
13719;BME280;6931;51.100;17.068;2022-07-10T05:48:30;100231.03;;;15.66;71.58
13719;BME280;6931;51.100;17.068;2022-07-10T05:50:57;100235.28;;;15.55;70.13
13719;BME280;6931;51.100;17.068;2022-07-10T05:53:44;100228.50;;;15.52;70.27
13719;BME280;6931;51.100;17.068;2022-07-10T05:56:11;100224.69;;;15.20;69.41
13719;BME280;6931;51.100;17.068;2022-07-10T05:58:37;100236.19;;;15.48;69.47
13719;BME280;6931;51.100;17.068;2022-07-10T06:01:05;100235.22;;;15.58;68.84
13719;BME280;6931;51.100;17.068;2022-07-10T06:03:31;100237.59;;;15.60;68.54
13719;BME280;6931;51.100;17.068;2022-07-10T06:05:58;100220.47;;;15.54;67.90
13719;BME280;6931;51.100;17.068;2022-07-10T06:08:26;100234.19;;;15.88;68.71
13719;BME280;6931;51.100;17.068;2022-07-10T06:10:53;100215.00;;;15.67;65.73
13719;BME280;6931;51.100;17.068;2022-07-10T06:13:19;100227.16;;;15.80;65.84
13719;BME280;6931;51.100;17.068;2022-07-10T06:15:47;100226.03;;;16.13;66.11
13719;BME280;6931;51.100;17.068;2022-07-10T06:18:14;100236.44;;;16.32;65.92
13719;BME280;6931;51.100;17.068;2022-07-10T06:20:41;100234.78;;;15.99;64.83
13719;BME280;6931;51.100;17.068;2022-07-10T06:23:07;100218.34;;;15.97;65.59
13719;BME280;6931;51.100;17.068;2022-07-10T06:25:34;100246.16;;;16.12;66.08
13719;BME280;6931;51.100;17.068;2022-07-10T06:28:01;100241.97;;;15.61;65.85
13719;BME280;6931;51.100;17.068;2022-07-10T06:30:27;100208.13;;;15.68;65.53
13719;BME280;6931;51.100;17.068;2022-07-10T06:32:54;100230.88;;;15.54;66.29
13719;BME280;6931;51.100;17.068;2022-07-10T06:35:21;100224.47;;;15.73;65.83
13719;BME280;6931;51.100;17.068;2022-07-10T06:37:47;100235.00;;;15.69;65.85
13719;BME280;6931;51.100;17.068;2022-07-10T06:40:16;100231.47;;;15.84;66.00
13719;BME280;6931;51.100;17.068;2022-07-10T06:42:43;100228.06;;;15.93;66.33
13719;BME280;6931;51.100;17.068;2022-07-10T06:45:10;100237.00;;;16.08;65.74
13719;BME280;6931;51.100;17.068;2022-07-10T06:47:37;100221.66;;;15.92;66.30
13719;BME280;6931;51.100;17.068;2022-07-10T06:50:28;100219.78;;;16.05;65.13
13719;BME280;6931;51.100;17.068;2022-07-10T06:53:01;100226.56;;;16.08;63.86
13719;BME280;6931;51.100;17.068;2022-07-10T06:55:28;100228.63;;;16.04;63.63
13719;BME280;6931;51.100;17.068;2022-07-10T06:57:55;100205.56;;;16.13;63.44
13719;BME280;6931;51.100;17.068;2022-07-10T07:00:22;100222.31;;;16.36;63.00
13719;BME280;6931;51.100;17.068;2022-07-10T07:02:49;100229.41;;;16.40;62.76
13719;BME280;6931;51.100;17.068;2022-07-10T07:05:16;100227.91;;;16.00;62.98
13719;BME280;6931;51.100;17.068;2022-07-10T07:07:43;100231.09;;;16.02;62.54
13719;BME280;6931;51.100;17.068;2022-07-10T07:10:10;100218.72;;;16.16;62.26
13719;BME280;6931;51.100;17.068;2022-07-10T07:12:37;100229.50;;;16.21;63.37
13719;BME280;6931;51.100;17.068;2022-07-10T07:15:05;100231.03;;;16.41;63.87
13719;BME280;6931;51.100;17.068;2022-07-10T07:17:32;100228.28;;;16.38;62.98
13719;BME280;6931;51.100;17.068;2022-07-10T07:20:12;100223.19;;;16.33;63.09
13719;BME280;6931;51.100;17.068;2022-07-10T07:22:57;100225.72;;;16.27;62.38
13719;BME280;6931;51.100;17.068;2022-07-10T07:25:40;100238.53;;;16.28;63.35
13719;BME280;6931;51.100;17.068;2022-07-10T07:28:10;100231.06;;;16.22;63.29
13719;BME280;6931;51.100;17.068;2022-07-10T07:30:38;100229.22;;;16.15;62.47
13719;BME280;6931;51.100;17.068;2022-07-10T07:33:05;100241.88;;;16.03;62.44
13719;BME280;6931;51.100;17.068;2022-07-10T07:35:31;100235.34;;;15.90;62.82
13719;BME280;6931;51.100;17.068;2022-07-10T07:37:58;100242.91;;;16.13;62.94
13719;BME280;6931;51.100;17.068;2022-07-10T07:40:25;100236.41;;;16.16;62.78
13719;BME280;6931;51.100;17.068;2022-07-10T07:42:53;100233.31;;;16.11;64.23
13719;BME280;6931;51.100;17.068;2022-07-10T07:45:21;100226.84;;;15.94;64.26
13719;BME280;6931;51.100;17.068;2022-07-10T07:47:53;100242.03;;;16.16;64.25
13719;BME280;6931;51.100;17.068;2022-07-10T07:50:23;100233.78;;;16.25;64.66
13719;BME280;6931;51.100;17.068;2022-07-10T07:52:52;100247.97;;;16.38;64.49
13719;BME280;6931;51.100;17.068;2022-07-10T07:55:20;100241.28;;;16.32;64.03
13719;BME280;6931;51.100;17.068;2022-07-10T07:57:50;100252.16;;;16.30;64.01
13719;BME280;6931;51.100;17.068;2022-07-10T08:00:18;100245.13;;;16.57;63.68
13719;BME280;6931;51.100;17.068;2022-07-10T08:02:45;100233.19;;;16.53;62.66
13719;BME280;6931;51.100;17.068;2022-07-10T08:05:12;100229.47;;;16.56;62.89
13719;BME280;6931;51.100;17.068;2022-07-10T08:07:59;100245.84;;;16.42;62.50
13719;BME280;6931;51.100;17.068;2022-07-10T08:10:30;100227.72;;;16.46;62.65
13719;BME280;6931;51.100;17.068;2022-07-10T08:12:57;100232.13;;;16.63;61.33
13719;BME280;6931;51.100;17.068;2022-07-10T08:15:24;100235.22;;;16.69;61.34
13719;BME280;6931;51.100;17.068;2022-07-10T08:17:52;100240.41;;;16.70;62.41
13719;BME280;6931;51.100;17.068;2022-07-10T08:20:21;100237.16;;;16.72;62.24
13719;BME280;6931;51.100;17.068;2022-07-10T08:22:48;100245.16;;;16.89;61.92
13719;BME280;6931;51.100;17.068;2022-07-10T08:25:21;100228.56;;;17.24;60.80
13719;BME280;6931;51.100;17.068;2022-07-10T08:27:49;100234.84;;;17.15;61.18
13719;BME280;6931;51.100;17.068;2022-07-10T08:30:16;100230.78;;;17.16;60.68
13719;BME280;6931;51.100;17.068;2022-07-10T08:32:44;100241.28;;;17.15;60.92
13719;BME280;6931;51.100;17.068;2022-07-10T08:35:10;100218.94;;;16.76;59.93
13719;BME280;6931;51.100;17.068;2022-07-10T08:37:43;100216.91;;;16.61;59.20
13719;BME280;6931;51.100;17.068;2022-07-10T08:40:12;100218.41;;;16.30;60.14
13719;BME280;6931;51.100;17.068;2022-07-10T08:42:43;100232.47;;;16.49;59.67
13719;BME280;6931;51.100;17.068;2022-07-10T08:45:11;100231.78;;;16.77;57.88
13719;BME280;6931;51.100;17.068;2022-07-10T08:47:39;100241.34;;;16.48;57.38
13719;BME280;6931;51.100;17.068;2022-07-10T08:50:22;100234.53;;;16.45;57.24
13719;BME280;6931;51.100;17.068;2022-07-10T08:53:08;100230.63;;;16.23;58.45
13719;BME280;6931;51.100;17.068;2022-07-10T08:55:36;100231.06;;;15.86;60.46
13719;BME280;6931;51.100;17.068;2022-07-10T08:58:04;100238.75;;;16.37;60.19
13719;BME280;6931;51.100;17.068;2022-07-10T09:00:33;100233.44;;;16.59;59.65
13719;BME280;6931;51.100;17.068;2022-07-10T09:03:00;100240.91;;;16.30;62.12
13719;BME280;6931;51.100;17.068;2022-07-10T09:05:27;100237.72;;;16.28;61.91
13719;BME280;6931;51.100;17.068;2022-07-10T09:07:54;100245.78;;;16.10;62.18
13719;BME280;6931;51.100;17.068;2022-07-10T09:10:25;100243.63;;;16.17;61.38
13719;BME280;6931;51.100;17.068;2022-07-10T09:12:59;100227.13;;;16.35;62.07
13719;BME280;6931;51.100;17.068;2022-07-10T09:15:28;100228.72;;;16.00;62.78
13719;BME280;6931;51.100;17.068;2022-07-10T09:18:02;100208.56;;;15.66;63.42
13719;BME280;6931;51.100;17.068;2022-07-10T09:20:42;100239.19;;;15.80;64.00
13719;BME280;6931;51.100;17.068;2022-07-10T09:23:17;100235.34;;;15.71;64.09
13719;BME280;6931;51.100;17.068;2022-07-10T09:25:46;100228.00;;;16.32;63.57
13719;BME280;6931;51.100;17.068;2022-07-10T09:28:17;100229.22;;;16.99;61.98
13719;BME280;6931;51.100;17.068;2022-07-10T09:30:44;100226.56;;;16.92;60.32
13719;BME280;6931;51.100;17.068;2022-07-10T09:33:25;100236.78;;;16.86;58.07
13719;BME280;6931;51.100;17.068;2022-07-10T09:36:00;100232.41;;;16.69;57.37
13719;BME280;6931;51.100;17.068;2022-07-10T09:41:29;100242.50;;;16.31;57.81
13719;BME280;6931;51.100;17.068;2022-07-10T09:43:57;100243.53;;;16.21;58.15
13719;BME280;6931;51.100;17.068;2022-07-10T09:46:26;100221.88;;;16.37;59.19
13719;BME280;6931;51.100;17.068;2022-07-10T09:49:13;100247.06;;;16.25;59.37
13719;BME280;6931;51.100;17.068;2022-07-10T09:51:45;100239.19;;;15.61;59.75
13719;BME280;6931;51.100;17.068;2022-07-10T09:54:15;100247.66;;;16.16;59.27
13719;BME280;6931;51.100;17.068;2022-07-10T09:56:47;100233.81;;;16.05;58.86
13719;BME280;6931;51.100;17.068;2022-07-10T09:59:16;100238.94;;;16.11;59.52
13719;BME280;6931;51.100;17.068;2022-07-10T10:01:48;100241.16;;;16.19;59.12
13719;BME280;6931;51.100;17.068;2022-07-10T10:04:18;100223.09;;;16.36;60.47
13719;BME280;6931;51.100;17.068;2022-07-10T10:06:50;100231.94;;;16.19;59.09
13719;BME280;6931;51.100;17.068;2022-07-10T10:11:59;100238.72;;;16.73;59.31
13719;BME280;6931;51.100;17.068;2022-07-10T10:14:29;100226.84;;;16.81;58.29
13719;BME280;6931;51.100;17.068;2022-07-10T10:16:56;100235.38;;;17.10;59.02
13719;BME280;6931;51.100;17.068;2022-07-10T10:19:24;100236.19;;;16.94;57.67
13719;BME280;6931;51.100;17.068;2022-07-10T10:22:09;100238.72;;;17.21;58.54
13719;BME280;6931;51.100;17.068;2022-07-10T10:24:42;100228.84;;;17.29;58.57
13719;BME280;6931;51.100;17.068;2022-07-10T10:27:09;100229.53;;;17.33;57.92
13719;BME280;6931;51.100;17.068;2022-07-10T10:29:37;100224.53;;;17.25;58.50
13719;BME280;6931;51.100;17.068;2022-07-10T10:32:04;100231.31;;;17.11;57.54
13719;BME280;6931;51.100;17.068;2022-07-10T10:34:45;100229.28;;;17.11;58.64
13719;BME280;6931;51.100;17.068;2022-07-10T10:39:54;100219.91;;;16.70;58.76
13719;BME280;6931;51.100;17.068;2022-07-10T10:42:39;100203.38;;;16.88;58.67
13719;BME280;6931;51.100;17.068;2022-07-10T10:45:30;100225.59;;;17.14;58.68
13719;BME280;6931;51.100;17.068;2022-07-10T10:48:12;100222.06;;;17.27;59.82
13719;BME280;6931;51.100;17.068;2022-07-10T10:50:59;100214.59;;;17.20;60.33
13719;BME280;6931;51.100;17.068;2022-07-10T10:53:27;100215.75;;;17.06;60.29
13719;BME280;6931;51.100;17.068;2022-07-10T10:58:58;100219.66;;;17.41;61.97
13719;BME280;6931;51.100;17.068;2022-07-10T11:01:27;100215.19;;;17.28;60.67
13719;BME280;6931;51.100;17.068;2022-07-10T11:06:50;100212.00;;;17.42;59.36
13719;BME280;6931;51.100;17.068;2022-07-10T11:09:27;100205.66;;;17.38;60.45
13719;BME280;6931;51.100;17.068;2022-07-10T11:12:01;100210.28;;;17.15;60.27
13719;BME280;6931;51.100;17.068;2022-07-10T11:14:30;100211.75;;;16.75;60.48
13719;BME280;6931;51.100;17.068;2022-07-10T11:16:57;100208.47;;;16.93;60.27
13719;BME280;6931;51.100;17.068;2022-07-10T11:19:26;100210.75;;;16.82;60.21
13719;BME280;6931;51.100;17.068;2022-07-10T11:28:06;100212.97;;;17.35;57.71
13719;BME280;6931;51.100;17.068;2022-07-10T11:30:49;100212.56;;;17.65;57.46
13719;BME280;6931;51.100;17.068;2022-07-10T11:33:16;100195.38;;;17.88;55.70
13719;BME280;6931;51.100;17.068;2022-07-10T11:35:47;100203.31;;;18.18;54.97
13719;BME280;6931;51.100;17.068;2022-07-10T11:38:24;100203.88;;;18.13;54.50
13719;BME280;6931;51.100;17.068;2022-07-10T11:40:51;100198.66;;;17.99;55.78
13719;BME280;6931;51.100;17.068;2022-07-10T11:43:21;100206.31;;;17.86;55.58
13719;BME280;6931;51.100;17.068;2022-07-10T11:45:51;100204.31;;;17.58;56.20
13719;BME280;6931;51.100;17.068;2022-07-10T11:48:21;100203.88;;;17.44;57.61
13719;BME280;6931;51.100;17.068;2022-07-10T11:50:48;100203.59;;;17.26;60.43
13719;BME280;6931;51.100;17.068;2022-07-10T11:53:25;100205.66;;;16.93;61.38
13719;BME280;6931;51.100;17.068;2022-07-10T11:55:53;100229.16;;;16.86;61.31
13719;BME280;6931;51.100;17.068;2022-07-10T11:58:20;100228.34;;;17.02;62.68
13719;BME280;6931;51.100;17.068;2022-07-10T12:01:00;100233.88;;;16.57;62.71
13719;BME280;6931;51.100;17.068;2022-07-10T12:03:28;100230.81;;;16.32;64.76
13719;BME280;6931;51.100;17.068;2022-07-10T12:06:01;100235.59;;;16.16;67.19
13719;BME280;6931;51.100;17.068;2022-07-10T12:08:28;100228.88;;;15.54;70.00
13719;BME280;6931;51.100;17.068;2022-07-10T12:10:55;100228.16;;;15.70;69.29
13719;BME280;6931;51.100;17.068;2022-07-10T12:13:22;100215.69;;;15.90;68.46
13719;BME280;6931;51.100;17.068;2022-07-10T12:15:48;100222.19;;;16.23;70.18
13719;BME280;6931;51.100;17.068;2022-07-10T12:18:17;100217.97;;;16.15;67.56
13719;BME280;6931;51.100;17.068;2022-07-10T12:20:45;100222.72;;;16.70;67.93
13719;BME280;6931;51.100;17.068;2022-07-10T12:23:17;100176.94;;;16.53;67.19
13719;BME280;6931;51.100;17.068;2022-07-10T12:25:47;100213.28;;;17.08;66.23
13719;BME280;6931;51.100;17.068;2022-07-10T12:28:17;100218.69;;;17.32;67.53
13719;BME280;6931;51.100;17.068;2022-07-10T12:30:48;100202.53;;;17.19;63.53
13719;BME280;6931;51.100;17.068;2022-07-10T12:33:19;100237.13;;;17.65;64.61
13719;BME280;6931;51.100;17.068;2022-07-10T12:35:56;100222.84;;;17.72;64.56
13719;BME280;6931;51.100;17.068;2022-07-10T12:38:30;100220.03;;;17.27;61.21
13719;BME280;6931;51.100;17.068;2022-07-10T12:41:13;100228.38;;;17.47;62.89
13719;BME280;6931;51.100;17.068;2022-07-10T12:43:41;100216.69;;;17.32;60.59
13719;BME280;6931;51.100;17.068;2022-07-10T12:46:16;100228.94;;;17.26;59.77
13719;BME280;6931;51.100;17.068;2022-07-10T12:49:09;100234.41;;;17.00;57.97
13719;BME280;6931;51.100;17.068;2022-07-10T12:51:45;100244.97;;;16.80;59.60
13719;BME280;6931;51.100;17.068;2022-07-10T12:54:35;100253.84;;;16.63;62.62
13719;BME280;6931;51.100;17.068;2022-07-10T12:57:04;100268.75;;;15.23;73.16
13719;BME280;6931;51.100;17.068;2022-07-10T12:59:36;100259.41;;;15.29;74.22
13719;BME280;6931;51.100;17.068;2022-07-10T13:02:20;100265.16;;;15.45;75.75
13719;BME280;6931;51.100;17.068;2022-07-10T13:04:56;100255.69;;;15.36;75.09
13719;BME280;6931;51.100;17.068;2022-07-10T13:07:33;100261.19;;;15.43;76.29
13719;BME280;6931;51.100;17.068;2022-07-10T13:10:05;100259.78;;;15.74;78.03
13719;BME280;6931;51.100;17.068;2022-07-10T13:12:33;100256.97;;;15.93;78.36
13719;BME280;6931;51.100;17.068;2022-07-10T13:15:02;100244.31;;;16.21;79.56
13719;BME280;6931;51.100;17.068;2022-07-10T13:17:29;100244.09;;;16.32;76.46
13719;BME280;6931;51.100;17.068;2022-07-10T13:19:56;100244.81;;;16.36;72.15